Data for 08/12/2009

Time Sea-Level Adjusted Pressure Absolute Pressure Temperature Relative Humidity Dew Point   
(mb) (inHg) (mb) (inHg) (C) (F) (%) (C) (F)
00:05 1021 30.15 851 25.13 17.5 63.5 42 4.4 39.9
00:10 1021 30.15 851 25.13 17.4 63.3 40 4 39.1
00:15 1021 30.15 851 25.13 17.4 63.4 38 3.2 37.8
00:20 1021 30.15 850 25.1 18.1 64.5 38 3.5 38.3
00:25 1021 30.15 850 25.1 17.9 64.2 39 4 39.2
00:30 1021 30.15 850 25.1 17.3 63.1 42 4.3 39.8
00:35 1021 30.15 850 25.1 16.9 62.5 41 3.8 38.8
00:40 1021 30.15 850 25.1 16.9 62.5 40 3.5 38.3
00:45 1021 30.15 850 25.1 17.1 62.7 39 3.3 37.9
00:50 1021 30.15 850 25.1 17.4 63.4 38 3.1 37.5
00:55 1021 30.15 850 25.1 17.4 63.3 39 3.6 38.4
01:00 1021 30.15 850 25.1 17.3 63.1 39 3.1 37.6
01:05 1021 30.15 850 25.1 17.4 63.4 38 3 37.4
01:10 1021 30.15 850 25.1 17.6 63.6 38 3.3 37.9
01:15 1021 30.15 850 25.1 17.1 62.8 40 3.5 38.3
01:20 1021 30.15 850 25.1 17 62.6 41 3.6 38.5
01:25 1021 30.15 850 25.1 16.8 62.2 41 3.4 38.1
01:30 1021 30.15 850 25.1 17 62.5 39 3 37.4
01:35 1021 30.15 850 25.1 17.2 62.9 38 3 37.4
01:40 1021 30.15 850 25.1 17.3 63.2 38 3.1 37.5
01:45 1021 30.15 850 25.1 17.1 62.7 39 3.2 37.7
01:50 1021 30.15 850 25.1 17.1 62.7 40 3.3 38
01:55 1021 30.15 850 25.1 17.1 62.7 39 3.2 37.8
02:00 1021 30.15 850 25.1 17.1 62.8 39 3.2 37.8
02:05 1021 30.15 850 25.1 17 62.5 40 3.5 38.2
02:10 1021 30.15 850 25.1 16.8 62.2 40 3.3 37.9
02:15 1020 30.12 850 25.1 17.1 62.7 38 2.8 37.1
02:20 1020 30.12 850 25.1 17.2 63 39 3.1 37.5
02:25 1021 30.15 850 25.1 17.1 62.7 39 3.1 37.6
02:30 1021 30.15 850 25.1 17.1 62.7 38 2.8 37.1
02:35 1021 30.15 850 25.1 17.4 63.3 39 3.2 37.8
02:40 1021 30.15 850 25.1 17.4 63.4 37 2.8 37.1
02:45 1021 30.15 850 25.1 17.3 63.1 38 2.9 37.2
02:50 1020 30.12 850 25.1 17.3 63.1 37 2.7 36.8
02:55 1020 30.12 850 25.1 17.4 63.3 37 2.6 36.6
03:00 1020 30.12 850 25.1 17.5 63.4 37 2.8 37.1
03:05 1021 30.15 850 25.1 17.3 63.2 38 2.9 37.2
03:10 1020 30.12 850 25.1 17.3 63.2 38 2.8 37.1
03:15 1020 30.12 850 25.1 17.1 62.8 38 3 37.3
03:20 1020 30.12 850 25.1 16.9 62.5 39 3.1 37.6
03:25 1020 30.12 849 25.07 16.8 62.3 39 2.7 36.9
03:30 1020 30.12 849 25.07 16.8 62.2 40 3.1 37.5
03:35 1020 30.12 849 25.07 16.8 62.3 39 2.8 37
03:40 1020 30.12 849 25.07 17 62.5 39 2.9 37.3
03:45 1020 30.12 849 25.07 16.9 62.5 39 2.8 37.1
03:50 1020 30.12 849 25.07 17 62.6 38 2.8 37
03:55 1020 30.12 849 25.07 17.2 62.9 37 2.5 36.5
04:00 1020 30.12 849 25.07 17.2 62.9 39 3.3 37.9
04:05 1020 30.12 849 25.07 17 62.6 38 2.8 37
04:10 1020 30.12 849 25.07 16.9 62.4 40 3.5 38.3
04:15 1020 30.12 849 25.07 16.3 61.4 41 3.2 37.8
04:20 1020 30.12 849 25.07 16.2 61.2 41 3.2 37.8
04:25 1020 30.12 849 25.07 16.2 61.1 41 3.1 37.6
04:30 1020 30.12 849 25.07 16.3 61.4 40 2.9 37.3
04:35 1020 30.12 849 25.07 16.4 61.5 40 2.9 37.2
04:40 1020 30.12 849 25.07 16.5 61.7 40 2.8 37.1
04:45 1020 30.12 849 25.07 16.5 61.7 39 2.7 36.9
04:50 1020 30.12 849 25.07 16.7 62 39 2.9 37.2
04:55 1020 30.12 849 25.07 16.7 62.1 39 2.8 37
05:00 1020 30.12 849 25.07 16.7 62.1 39 3 37.3
05:05 1020 30.12 849 25.07 16.7 62.1 39 2.7 36.9
05:10 1020 30.12 849 25.07 16.7 62.1 39 2.7 36.9
05:15 1020 30.12 849 25.07 16.7 62.1 39 2.8 37
05:20 1020 30.12 849 25.07 16.7 62.1 38 2.6 36.7
05:25 1020 30.12 849 25.07 16.9 62.4 38 2.6 36.7
05:30 1020 30.12 849 25.07 17 62.7 38 2.6 36.8
05:35 1020 30.12 849 25.07 16.9 62.4 39 2.9 37.2
05:40 1020 30.12 849 25.07 16.9 62.4 38 2.7 36.8
05:45 1020 30.12 849 25.07 17.2 63 36 2.1 35.7
05:50 1020 30.12 849 25.07 17.4 63.4 37 2.9 37.2
05:55 1020 30.12 849 25.07 17.2 63 37 2.6 36.6
06:00 1020 30.12 849 25.07 17 62.5 41 3.6 38.5
06:05 1020 30.12 849 25.07 16.5 61.7 42 3.6 38.5
06:10 1020 30.12 849 25.07 16.5 61.6 41 3.4 38.1
06:15 1020 30.12 849 25.07 16.2 61.2 42 3.3 37.9
06:20 1020 30.12 849 25.07 16.2 61.2 41 3.2 37.8
06:25 1020 30.12 850 25.1 16.4 61.5 40 2.8 37
06:30 1020 30.12 850 25.1 16.5 61.7 41 3.4 38.2
06:35 1020 30.12 850 25.1 16.4 61.4 42 3.5 38.3
06:40 1020 30.12 850 25.1 16.2 61.1 43 3.6 38.5
06:45 1020 30.12 850 25.1 16.2 61.1 42 3.3 38
06:50 1020 30.12 850 25.1 16.5 61.7 39 2.7 36.8
06:55 1020 30.12 850 25.1 16.9 62.4 39 3.1 37.7
07:00 1020 30.12 850 25.1 16.7 62.1 41 3.5 38.4
07:05 1020 30.12 850 25.1 16.6 62 42 3.8 38.9
07:10 1021 30.15 850 25.1 16.7 62.1 40 3.3 38
07:15 1021 30.15 850 25.1 16.8 62.3 42 4 39.2
07:20 1021 30.15 850 25.1 17 62.6 40 3.5 38.2
07:25 1021 30.15 850 25.1 17.3 63.1 38 2.9 37.1
07:30 1021 30.15 850 25.1 17.5 63.5 38 3 37.4
07:35 1020 30.12 850 25.1 17.4 63.3 41 4.2 39.5
07:40 1020 30.12 850 25.1 16.9 62.5 46 5.5 41.9
07:45 1020 30.12 850 25.1 16.7 62.1 44 4.4 40
07:50 1020 30.12 850 25.1 16.7 62.1 44 4.5 40.1
07:55 1020 30.12 850 25.1 16.9 62.4 45 4.9 40.8
08:00 1020 30.12 850 25.1 17 62.6 44 4.7 40.5
08:05 1020 30.12 850 25.1 17.2 62.9 44 4.8 40.7
08:10 1021 30.15 850 25.1 17.5 63.6 42 4.8 40.6
08:15 1021 30.15 850 25.1 17.8 64 42 4.7 40.5
08:20 1021 30.15 850 25.1 18 64.5 41 4.7 40.5
08:25 1021 30.15 850 25.1 18.2 64.7 43 5.4 41.7
08:30 1021 30.15 850 25.1 18.3 64.9 42 5.3 41.5
08:35 1021 30.15 850 25.1 18.7 65.6 41 5.3 41.6
08:40 1021 30.15 850 25.1 19 66.1 41 5.6 42
08:45 1021 30.15 850 25.1 19.4 66.8 39 5.3 41.5
08:50 1021 30.15 850 25.1 19.4 66.9 42 6.3 43.4
08:55 1021 30.15 850 25.1 19.5 67.2 42 6.3 43.3
09:00 1021 30.15 850 25.1 20.4 68.6 38 5.9 42.5
09:05 1021 30.15 850 25.1 20.6 69.1 38 6.1 42.9
09:10 1021 30.15 850 25.1 20 67.9 41 6.6 43.9
09:15 1021 30.15 850 25.1 19.7 67.5 37 4.8 40.7
09:20 1021 30.15 850 25.1 19.8 67.7 38 5.2 41.4
09:25 1021 30.15 850 25.1 20 67.9 36 4.5 40
09:30 1021 30.15 850 25.1 20.4 68.8 33 3.8 38.8
09:35 1021 30.15 850 25.1 20.5 68.9 35 4.7 40.5
09:40 1021 30.15 850 25.1 19.9 67.8 36 4.5 40.1
09:45 1021 30.15 850 25.1 20.2 68.4 37 5.1 41.1
09:50 1021 30.15 850 25.1 21 69.7 33 4.3 39.8
09:55 1021 30.15 850 25.1 21.3 70.4 33 4.7 40.4
10:00 1021 30.15 850 25.1 22.3 72.2 31 4.7 40.4
10:05 1021 30.15 850 25.1 22 71.7 32 4.6 40.3
10:10 1021 30.15 850 25.1 22.7 72.9 30 4.6 40.3
10:15 1021 30.15 850 25.1 22.9 73.3 31 5 41.1
10:20 1021 30.15 850 25.1 23.4 74 29 4.4 40
10:25 1021 30.15 850 25.1 23.9 75 29 5.1 41.2
10:30 1021 30.15 850 25.1 24.4 75.8 28 5 41.1
10:35 1021 30.15 850 25.1 23.5 74.2 32 5.9 42.6
10:40 1021 30.15 850 25.1 22.5 72.5 34 6.2 43.2
10:45 1021 30.15 850 25.1 22.6 72.7 33 5.8 42.4
10:50 1021 30.15 850 25.1 22.4 72.2 35 6.3 43.4
10:55 1021 30.15 851 25.13 21.8 71.3 38 7 44.5
11:00 1021 30.15 850 25.1 21.6 70.9 37 6.6 44
11:05 1021 30.15 850 25.1 21.4 70.5 37 6.1 43
11:10 1021 30.15 850 25.1 22 71.6 35 5.8 42.5
11:15 1021 30.15 850 25.1 23.1 73.6 32 5.7 42.2
11:20 1021 30.15 850 25.1 23 73.4 32 5.7 42.2
11:25 1021 30.15 850 25.1 22.5 72.5 34 6.2 43.2
11:30 1020 30.12 850 25.1 22.9 73.1 32 5.7 42.2
11:35 1020 30.12 850 25.1 23 73.4 34 6.5 43.7
11:40 1020 30.12 850 25.1 23.2 73.7 32 5.8 42.5
11:45 1020 30.12 850 25.1 24 75.3 30 5.8 42.4
11:50 1020 30.12 850 25.1 23.9 75 30 5.6 42.1
11:55 1020 30.12 849 25.07 24.4 75.9 29 5.4 41.8
12:00 1020 30.12 849 25.07 24.3 75.7 29 5.5 41.9
12:05 1020 30.12 849 25.07 25.1 77.2 27 4.9 40.7
12:10 1020 30.12 849 25.07 24.7 76.4 29 6 42.7
12:15 1020 30.12 849 25.07 25.4 77.6 27 5.1 41.1
12:20 1020 30.12 849 25.07 26.3 79.4 26 5.8 42.4
12:25 1020 30.12 849 25.07 26.4 79.5 27 6.3 43.4
12:30 1020 30.12 849 25.07 26.9 80.4 26 6 42.8
12:35 1020 30.12 849 25.07 26.9 80.3 27 6.6 43.9
12:40 1019 30.09 849 25.07 25.8 78.4 29 6.4 43.6
12:45 1019 30.09 849 25.07 26 78.7 27 5.8 42.4
12:50 1019 30.09 849 25.07 25.6 78 29 6.2 43.2
12:55 1019 30.09 848 25.04 25.5 77.9 28 5.9 42.6
13:00 1019 30.09 848 25.04 26.1 79 26 5.1 41.2
13:05 1019 30.09 848 25.04 27.3 81.1 23 4.6 40.3
13:10 1019 30.09 848 25.04 27.6 81.6 24 5.5 41.9
13:15 1019 30.09 848 25.04 27 80.7 26 6.1 42.9
13:20 1019 30.09 848 25.04 26.1 79 29 7 44.7
13:25 1019 30.09 848 25.04 25.2 77.4 32 7.6 45.6
13:30 1019 30.09 848 25.04 25.3 77.6 32 7.9 46.1
13:35 1019 30.09 848 25.04 25.9 78.7 30 7.1 44.9
13:40 1019 30.09 848 25.04 25.6 78 32 7.8 46
13:45 1019 30.09 848 25.04 25.6 78.1 31 7.4 45.3
13:50 1019 30.09 848 25.04 25 77 35 8.8 47.9
13:55 1019 30.09 848 25.04 25 76.9 31 6.8 44.2
14:00 1019 30.09 848 25.04 25.7 78.3 23 3.5 38.4
14:05 1019 30.09 848 25.04 25.7 78.3 24 4 39.2
14:10 1018 30.06 847 25.01 26 78.8 16 -1.4 29.4
14:15 1018 30.06 847 25.01 27 80.5 22 3.6 38.4
14:20 1018 30.06 847 25.01 27.7 81.8 17 1 33.7
14:25 1018 30.06 847 25.01 27.5 81.6 20 2.5 36.5
14:30 1018 30.06 847 25.01 26.2 79.1 23 3.8 38.9
14:35 1018 30.06 847 25.01 26 78.7 24 3.9 38.9
14:40 1018 30.06 847 25.01 26.1 79.1 25 4.6 40.3
14:45 1018 30.06 847 25.01 25.8 78.5 30 7 44.6
14:50 1018 30.06 847 25.01 25.3 77.6 25 4.4 39.9
14:55 1018 30.06 847 25.01 25.3 77.5 33 8.2 46.8
15:00 1019 30.09 848 25.04 23.4 74.2 41 9.7 49.5
15:05 1019 30.09 848 25.04 22.2 71.9 40 8.1 46.5
15:10 1019 30.09 849 25.07 22 71.7 35 6.1 42.9
15:15 1019 30.09 848 25.04 22.9 73.1 31 5 41.1
15:20 1019 30.09 849 25.07 23.8 74.8 29 5 41.1
15:25 1019 30.09 849 25.07 24.3 75.7 29 5.5 41.8
15:30 1019 30.09 848 25.04 23.9 75 22 1 33.8
15:35 1019 30.09 848 25.04 24.9 76.8 30 6.2 43.2
15:40 1019 30.09 848 25.04 23.4 74.1 33 6.2 43.2
15:45 1019 30.09 848 25.04 23.1 73.6 30 4.9 40.8
15:50 1019 30.09 848 25.04 23.4 74 29 4.8 40.6
15:55 1019 30.09 848 25.04 23.3 74 27 3.4 38.1
16:00 1018 30.06 847 25.01 23.7 74.6 26 3.3 37.9
16:05 1018 30.06 847 25.01 24.2 75.6 26 3.6 38.4
16:10 1018 30.06 847 25.01 24.7 76.5 25 3.8 38.8
16:15 1018 30.06 847 25.01 25 77 25 3.8 38.8
16:20 1018 30.06 847 25.01 25 77 25 3.9 39.1
16:25 1018 30.06 847 25.01 25.3 77.5 24 3.7 38.7
16:30 1018 30.06 847 25.01 25.1 77.2 25 4.1 39.3
16:35 1018 30.06 847 25.01 24.8 76.6 26 4.1 39.3
16:40 1017 30.03 847 25.01 24.9 76.8 25 3.8 38.8
16:45 1018 30.06 847 25.01 24.9 76.8 27 4.6 40.3
16:50 1018 30.06 847 25.01 24.9 76.8 26 4.4 39.9
16:55 1018 30.06 847 25.01 24.9 76.8 28 5.6 42.2
17:00 1018 30.06 847 25.01 24.4 76 29 5.3 41.5
17:05 1018 30.06 847 25.01 24.7 76.5 27 4.7 40.5
17:10 1018 30.06 847 25.01 25.2 77.4 26 4.7 40.5
17:15 1018 30.06 847 25.01 25.1 77.2 25 3.7 38.7
17:20 1018 30.06 847 25.01 25.3 77.5 24 3.7 38.7
17:25 1018 30.06 847 25.01 25.2 77.3 23 2.9 37.3
17:30 1018 30.06 847 25.01 25.5 78 23 3 37.3
17:35 1018 30.06 847 25.01 25.5 78 24 3.9 39
17:40 1018 30.06 847 25.01 25.1 77.1 24 3.4 38
17:45 1018 30.06 847 25.01 24.8 76.6 26 4.5 40
17:50 1018 30.06 847 25.01 24.4 75.9 26 4.1 39.5
17:55 1018 30.06 847 25.01 24.3 75.7 26 3.9 39.1
18:00 1018 30.06 848 25.04 24.2 75.5 26 3.9 39.1
18:05 1019 30.09 848 25.04 24.2 75.5 27 4.3 39.7
18:10 1019 30.09 848 25.04 24.2 75.5 28 4.7 40.4
18:15 1019 30.09 848 25.04 23.9 75.1 31 5.8 42.5
18:20 1019 30.09 848 25.04 23.6 74.4 28 4.4 39.9
18:25 1018 30.06 848 25.04 24 75.2 28 4.3 39.8
18:30 1018 30.06 848 25.04 23 73.5 37 7.8 46.1
18:35 1018 30.06 847 25.01 22.1 71.7 39 7.5 45.5
18:40 1018 30.06 847 25.01 21.9 71.3 38 7.1 44.8
18:45 1018 30.06 847 25.01 21.9 71.4 36 6.3 43.4
18:50 1018 30.06 847 25.01 22.1 71.9 36 6.7 44
18:55 1018 30.06 847 25.01 22.2 72 37 7.1 44.8
19:00 1018 30.06 847 25.01 22.1 71.8 37 6.9 44.4
19:05 1018 30.06 847 25.01 22.1 71.7 38 7.4 45.3
19:10 1018 30.06 847 25.01 22.1 71.8 37 6.9 44.5
19:15 1018 30.06 847 25.01 22.3 72.1 36 6.8 44.2
19:20 1018 30.06 847 25.01 22.3 72.1 37 6.9 44.5
19:25 1017 30.03 847 25.01 22.1 71.8 36 6.7 44.1
19:30 1017 30.03 847 25.01 22.1 71.8 37 6.9 44.4
19:35 1017 30.03 847 25.01 22 71.6 37 6.7 44.1
19:40 1017 30.03 846 24.98 21.9 71.3 37 6.7 44.1
19:45 1017 30.03 846 24.98 21.8 71.2 37 6.7 44
19:50 1017 30.03 846 24.98 21.8 71.3 38 7.1 44.7
19:55 1017 30.03 846 24.98 21.8 71.2 37 6.7 44.1
20:00 1017 30.03 846 24.98 21.8 71.2 36 6.3 43.3
20:05 1017 30.03 846 24.98 21.9 71.4 36 6.4 43.5
20:10 1017 30.03 847 25.01 21.9 71.4 38 7 44.6
20:15 1018 30.06 847 25.01 21.7 71 39 7.3 45.1
20:20 1018 30.06 847 25.01 21.8 71.2 36 6.3 43.4
20:25 1017 30.03 847 25.01 22 71.6 34 5.4 41.7
20:30 1017 30.03 847 25.01 22.2 71.9 34 5.7 42.3
20:35 1018 30.06 847 25.01 21.9 71.4 35 5.8 42.5
20:40 1018 30.06 847 25.01 21.8 71.3 33 5.2 41.4
20:45 1018 30.06 847 25.01 21.6 71 39 7.1 44.8
20:50 1018 30.06 847 25.01 20.8 69.5 47 9.4 48.9
20:55 1018 30.06 847 25.01 20 68 44 7.6 45.7
21:00 1018 30.06 847 25.01 19.6 67.3 45 7.3 45.2
21:05 1018 30.06 847 25.01 19.7 67.4 43 6.8 44.3
21:10 1018 30.06 847 25.01 20.1 68.1 41 6.7 44.1
21:15 1018 30.06 847 25.01 20.3 68.5 41 6.8 44.2
21:20 1018 30.06 847 25.01 20.2 68.4 40 6.3 43.4
21:25 1018 30.06 847 25.01 20.4 68.6 39 6.1 43.1
21:30 1018 30.06 847 25.01 20.5 68.8 38 6 42.7
21:35 1018 30.06 847 25.01 20.5 68.9 37 5.6 42
21:40 1018 30.06 848 25.04 20.7 69.2 38 6 42.8
21:45 1018 30.06 848 25.04 20.5 68.8 39 6.3 43.4
21:50 1018 30.06 848 25.04 20.2 68.3 40 6.4 43.5
21:55 1019 30.09 848 25.04 20.1 68.2 40 6.1 43
22:00 1019 30.09 848 25.04 20.1 68.2 40 6.1 43
22:05 1019 30.09 848 25.04 20 68 42 6.9 44.4
22:10 1019 30.09 848 25.04 19.4 66.9 46 7.7 45.9
22:15 1019 30.09 848 25.04 18.7 65.6 49 7.8 46
22:20 1019 30.09 848 25.04 18.2 64.7 51 8.1 46.6
22:25 1019 30.09 848 25.04 17.6 63.7 50 7.2 45
22:30 1019 30.09 848 25.04 17.9 64.3 48 6.9 44.4
22:35 1019 30.09 848 25.04 18.6 65.5 45 6.5 43.7
22:40 1019 30.09 848 25.04 18.2 64.7 53 8.6 47.5
22:45 1019 30.09 848 25.04 17.7 63.8 50 7.2 44.9
22:50 1019 30.09 848 25.04 18.4 65.1 48 7.4 45.3
22:55 1019 30.09 848 25.04 18 64.3 49 7.3 45.1
23:00 1019 30.09 848 25.04 17.9 64.1 55 8.7 47.7
23:05 1019 30.09 848 25.04 17.3 63.1 53 7.7 45.9
23:10 1019 30.09 848 25.04 17.2 63 57 8.8 47.8
23:15 1019 30.09 848 25.04 16.6 61.8 53 7 44.7
23:20 1019 30.09 848 25.04 17 62.6 52 7.3 45.2
23:25 1019 30.09 848 25.04 16.8 62.3 58 8.5 47.3
23:30 1019 30.09 848 25.04 15.9 60.5 58 7.7 45.9
23:35 1019 30.09 848 25.04 16.3 61.3 56 7.4 45.4
23:40 1019 30.09 848 25.04 16.3 61.3 57 7.8 46
23:45 1019 30.09 848 25.04 16.3 61.3 55 7.3 45.2
23:50 1019 30.09 848 25.04 16.3 61.3 56 7.6 45.6
23:55 1019 30.09 849 25.07 16.1 61 56 7.4 45.4
24:00 1019 30.09 849 25.07 16 60.9 57 7.6 45.7